Emerson, North Carolina
Current Conditions -  °F | °C
As of 12:35 PM on Tuesday 21 Oct 2014 (Local Time) from KEYF Reporting Station
Clear Clear  
Wind Chill: 73°   Ceiling: Unl
Heat Index: 73°   Visibility: 10mi
Dew Point: 51°   Wind: 6mph
Humidity: 45%   Direction: 270°W
Pressure: 29.91"   Gusts: NA
Location:  34.5012°N, 78.612°W
Report Text: KEYF 211635Z AUTO 27005KT 10SM CLR 23/11 A2991 RMK AO2 T02300105
Loading
Personal Weather Stations






























Interactive Weather Map
Tropical Storm Tracking
New forecast layout! Learn more

10-Day Weather Forecast

Advertisements
Track Severe Weather on mobile